Time;durP1;ratioP1;P1;durP2;ratioP2;P2;SDS_P1;SDS_P2;PMS_P1;PMS_P2;Temp;Humidity;BMP_temperature;BMP_pressure;BME280_temperature;BME280_humidity;BME280_pressure;Samples;Min_cycle;Max_cycle;Signal;HPM_P1;HPM_P2
2023/10/06 00:00:19;;;;;;;9.15;2.50;;;15.40;56.90;;;;;;5018474;28;20053;-50
2023/10/06 00:02:48;;;;;;;8.38;2.50;;;15.40;57.00;;;;;;5018187;28;20056;-49
2023/10/06 00:05:15;;;;;;;7.78;2.63;;;15.40;57.00;;;;;;5017823;28;20049;-45
2023/10/06 00:07:45;;;;;;;6.15;2.38;;;15.30;57.00;;;;;;5019564;28;20489;-48
2023/10/06 00:10:19;;;;;;;11.57;2.95;;;15.30;57.10;;;;;;5020089;28;20049;-46
2023/10/06 00:12:58;;;;;;;8.52;3.05;;;15.30;57.20;;;;;;5020171;28;20061;-49
2023/10/06 00:15:38;;;;;;;8.00;2.42;;;15.30;57.20;;;;;;5019021;28;20065;-49
2023/10/06 00:18:09;;;;;;;6.93;2.38;;;15.20;57.20;;;;;;5019560;28;20049;-50
2023/10/06 00:20:48;;;;;;;5.72;2.22;;;15.20;57.20;;;;;;5018879;28;20049;-51
2023/10/06 00:23:21;;;;;;;7.97;2.70;;;15.20;57.30;;;;;;5019276;28;20060;-47
2023/10/06 00:25:52;;;;;;;6.47;2.60;;;15.10;57.30;;;;;;5019815;28;20084;-50
2023/10/06 00:28:25;;;;;;;5.82;2.50;;;15.10;57.30;;;;;;5019576;28;20494;-48
2023/10/06 00:30:56;;;;;;;8.63;2.60;;;15.10;57.40;;;;;;5019701;28;20060;-44
2023/10/06 00:33:27;;;;;;;7.40;2.60;;;15.10;57.40;;;;;;5018697;28;20053;-48
2023/10/06 00:35:55;;;;;;;7.13;2.63;;;15.10;57.50;;;;;;5018492;28;20532;-48
2023/10/06 00:38:24;;;;;;;8.88;2.97;;;15.00;57.50;;;;;;5018874;28;20053;-46
2023/10/06 00:40:52;;;;;;;6.38;2.63;;;15.00;57.50;;;;;;5019240;28;20053;-48
2023/10/06 00:43:34;;;;;;;8.65;2.50;;;15.00;57.60;;;;;;5018951;28;20560;-46
2023/10/06 00:46:03;;;;;;;5.80;2.60;;;15.00;57.80;;;;;;5019952;28;21473;-48
2023/10/06 00:48:32;;;;;;;6.45;2.70;;;15.00;57.70;;;;;;5019883;28;20413;-48
2023/10/06 00:51:01;;;;;;;8.27;2.63;;;14.90;57.70;;;;;;5019746;28;20057;-44
2023/10/06 00:53:32;;;;;;;4.15;2.20;;;14.90;57.70;;;;;;5018484;28;20421;-47
2023/10/06 00:56:02;;;;;;;9.25;2.67;;;14.90;57.80;;;;;;5019631;28;20072;-46
2023/10/06 00:58:34;;;;;;;7.47;2.30;;;14.90;57.80;;;;;;5019619;28;20394;-47
2023/10/06 01:01:05;;;;;;;7.97;2.55;;;14.90;57.80;;;;;;5019068;28;20053;-45
2023/10/06 01:03:38;;;;;;;7.43;2.65;;;14.80;57.80;;;;;;5019646;28;20050;-46
2023/10/06 01:06:11;;;;;;;6.57;3.00;;;14.80;57.80;;;;;;5017818;28;20053;-45
2023/10/06 01:08:45;;;;;;;5.85;2.75;;;14.80;57.90;;;;;;5020348;28;20486;-44
2023/10/06 01:11:13;;;;;;;7.60;2.28;;;14.80;58.00;;;;;;5021781;28;20060;-46
2023/10/06 01:13:54;;;;;;;8.65;2.90;;;14.80;58.00;;;;;;5021475;28;20128;-48
2023/10/06 01:16:30;;;;;;;8.15;2.95;;;14.70;58.00;;;;;;5022005;28;20064;-48
2023/10/06 01:19:14;;;;;;;7.55;2.65;;;14.70;58.00;;;;;;5023018;28;20057;-48
2023/10/06 01:21:45;;;;;;;8.90;2.78;;;14.70;58.00;;;;;;5022141;28;20080;-46
2023/10/06 01:24:15;;;;;;;9.38;2.95;;;14.70;58.00;;;;;;5023179;28;20394;-44
2023/10/06 01:26:42;;;;;;;6.20;2.50;;;14.70;58.10;;;;;;5023132;28;20061;-49
2023/10/06 01:29:14;;;;;;;5.28;2.63;;;14.60;58.10;;;;;;5022468;28;20060;-47
2023/10/06 01:31:41;;;;;;;6.93;2.75;;;14.60;58.20;;;;;;5021567;28;20057;-48
2023/10/06 01:34:10;;;;;;;8.10;2.72;;;14.60;58.20;;;;;;5021173;28;20049;-47
2023/10/06 01:36:37;;;;;;;7.57;2.50;;;14.60;58.30;;;;;;5022074;28;20041;-46
2023/10/06 01:39:15;;;;;;;6.47;2.53;;;14.60;58.30;;;;;;5022412;28;20080;-47
2023/10/06 01:41:46;;;;;;;9.27;3.00;;;14.60;58.30;;;;;;5021682;28;20056;-44
2023/10/06 01:44:15;;;;;;;5.45;2.50;;;14.60;58.40;;;;;;5021868;28;20057;-49
2023/10/06 01:46:42;;;;;;;5.07;2.40;;;14.50;58.30;;;;;;5021005;28;20045;-50
2023/10/06 01:49:11;;;;;;;9.07;3.08;;;14.50;58.40;;;;;;5022368;28;20053;-51
2023/10/06 01:51:38;;;;;;;6.53;2.88;;;14.50;58.40;;;;;;5022108;28;20057;-50
2023/10/06 01:54:11;;;;;;;8.82;3.05;;;14.50;58.40;;;;;;5022373;28;20053;-44
2023/10/06 01:56:40;;;;;;;7.25;3.58;;;14.50;58.50;;;;;;5021810;28;20049;-47
2023/10/06 01:59:10;;;;;;;6.22;2.78;;;14.50;58.50;;;;;;5021231;28;20486;-48
2023/10/06 02:01:39;;;;;;;7.18;2.85;;;14.50;58.70;;;;;;5019459;28;20490;-48
2023/10/06 02:04:10;;;;;;;7.97;3.60;;;14.50;58.70;;;;;;5020677;28;20053;-49
2023/10/06 02:06:37;;;;;;;11.32;4.00;;;14.50;58.80;;;;;;5021351;28;21210;-47
2023/10/06 02:09:14;;;;;;;8.15;3.63;;;14.50;58.80;;;;;;5021965;28;20065;-46
2023/10/06 02:11:42;;;;;;;6.68;3.40;;;14.40;58.80;;;;;;5021289;28;20409;-46
2023/10/06 02:14:12;;;;;;;7.72;3.40;;;14.40;58.80;;;;;;5021402;28;20060;-44
2023/10/06 02:16:40;;;;;;;9.70;3.28;;;14.40;58.80;;;;;;5020117;28;20053;-45
2023/10/06 02:19:08;;;;;;;10.18;3.80;;;14.40;58.90;;;;;;5021810;28;20049;-50
2023/10/06 02:21:36;;;;;;;11.60;4.05;;;14.40;58.90;;;;;;5018597;28;20056;-46
2023/10/06 02:24:08;;;;;;;8.00;3.63;;;14.40;58.90;;;;;;5020882;28;20053;-45
2023/10/06 02:26:37;;;;;;;7.85;3.85;;;14.40;59.10;;;;;;5021761;28;20053;-49
2023/10/06 02:29:08;;;;;;;11.40;3.95;;;14.40;59.10;;;;;;5021583;28;20390;-44
2023/10/06 02:31:36;;;;;;;7.53;3.60;;;14.40;59.10;;;;;;5017016;28;20057;-45
2023/10/06 02:34:12;;;;;;;14.45;4.20;;;14.40;59.10;;;;;;5020902;28;20488;-48
2023/10/06 02:36:41;;;;;;;10.77;3.88;;;14.30;59.00;;;;;;5021217;28;20401;-50
2023/10/06 02:39:10;;;;;;;9.63;4.20;;;14.30;59.10;;;;;;5018770;28;20064;-50
2023/10/06 02:41:38;;;;;;;8.50;4.18;;;14.30;59.10;;;;;;5020154;28;20053;-48
2023/10/06 02:44:14;;;;;;;8.77;4.35;;;14.30;59.10;;;;;;5020567;28;20405;-51
2023/10/06 02:46:44;;;;;;;11.13;3.95;;;14.30;59.60;;;;;;5019285;28;20425;-45
2023/10/06 02:49:23;;;;;;;8.07;3.83;;;14.30;59.20;;;;;;5021114;28;20528;-46
2023/10/06 02:51:54;;;;;;;11.73;4.15;;;14.30;59.20;;;;;;5021450;28;20516;-47
2023/10/06 02:54:27;;;;;;;9.05;4.30;;;14.30;59.20;;;;;;5020490;28;20076;-49
2023/10/06 02:56:55;;;;;;;9.60;3.67;;;14.30;59.30;;;;;;5020156;28;20049;-48
2023/10/06 02:59:24;;;;;;;7.95;3.90;;;14.20;59.20;;;;;;5020727;28;20444;-48
2023/10/06 03:01:56;;;;;;;9.35;4.05;;;14.30;59.30;;;;;;5016136;28;20061;-44
2023/10/06 03:04:26;;;;;;;6.72;3.60;;;14.30;59.30;;;;;;5020384;28;20049;-48
2023/10/06 03:06:55;;;;;;;7.68;3.63;;;14.20;59.30;;;;;;5020007;28;20058;-47
2023/10/06 03:09:29;;;;;;;7.55;3.83;;;14.20;59.20;;;;;;5019718;28;20049;-44
2023/10/06 03:11:59;;;;;;;7.90;3.35;;;14.20;59.30;;;;;;5018483;28;20057;-48
2023/10/06 03:14:37;;;;;;;7.43;3.80;;;14.20;59.30;;;;;;5019995;28;20422;-48
2023/10/06 03:17:10;;;;;;;8.35;4.30;;;14.20;59.30;;;;;;5020334;28;20056;-50
2023/10/06 03:19:40;;;;;;;10.10;4.28;;;14.20;59.30;;;;;;5018835;28;20084;-49
2023/10/06 03:22:09;;;;;;;8.77;3.80;;;14.20;59.20;;;;;;5019568;28;20053;-46
2023/10/06 03:24:44;;;;;;;8.07;3.63;;;14.20;59.20;;;;;;5014148;28;20706;-45
2023/10/06 03:27:16;;;;;;;7.68;3.72;;;14.10;59.70;;;;;;5019836;28;20054;-49
2023/10/06 03:29:53;;;;;;;6.82;3.60;;;14.10;59.20;;;;;;5019880;28;20057;-50
2023/10/06 03:32:33;;;;;;;7.03;3.65;;;14.10;59.20;;;;;;5018147;28;20049;-48
2023/10/06 03:35:11;;;;;;;7.53;3.72;;;14.10;59.20;;;;;;5020278;28;20041;-47
2023/10/06 03:37:51;;;;;;;7.22;3.53;;;14.10;59.20;;;;;;5019195;28;20497;-46
2023/10/06 03:40:23;;;;;;;7.95;4.03;;;14.00;59.20;;;;;;5020591;28;20060;-50
2023/10/06 03:42:52;;;;;;;7.07;3.47;;;14.10;59.30;;;;;;5019754;28;20512;-47
2023/10/06 03:45:26;;;;;;;11.07;4.03;;;14.00;59.30;;;;;;5017768;28;20505;-50
2023/10/06 03:48:08;;;;;;;;;;;14.00;59.30;;;;;;5019907;28;20049;-50
2023/10/06 03:50:38;;;;;;;8.43;3.92;;;14.00;59.30;;;;;;5019065;28;19925;-47
2023/10/06 03:53:07;;;;;;;7.50;3.70;;;14.00;59.10;;;;;;5017820;28;20049;-47
2023/10/06 03:55:39;;;;;;;7.20;3.80;;;14.00;59.20;;;;;;5019363;28;20068;-47
2023/10/06 03:58:07;;;;;;;5.63;3.75;;;13.90;59.30;;;;;;5018895;28;20049;-47
2023/10/06 04:00:38;;;;;;;7.32;4.10;;;13.90;59.30;;;;;;5017964;28;20068;-45
2023/10/06 04:03:13;;;;;;;7.28;3.67;;;13.90;59.30;;;;;;5017828;28;20390;-47
2023/10/06 04:05:41;;;;;;;5.05;3.25;;;13.90;59.40;;;;;;5018050;28;20061;-46
2023/10/06 04:08:11;;;;;;;8.77;3.70;;;13.80;59.30;;;;;;5011304;28;20057;-47
2023/10/06 04:10:40;;;;;;;10.00;4.95;;;13.80;59.30;;;;;;5019307;28;20052;-47
2023/10/06 04:13:09;;;;;;;6.97;3.75;;;13.80;59.90;;;;;;5019211;28;20060;-48
2023/10/06 04:15:38;;;;;;;6.95;3.67;;;13.80;59.40;;;;;;5018196;28;20057;-47
2023/10/06 04:18:10;;;;;;;9.60;3.42;;;13.80;59.40;;;;;;5016602;28;21252;-46
2023/10/06 04:20:39;;;;;;;7.80;3.40;;;13.80;59.40;;;;;;5016925;28;20053;-49
2023/10/06 04:23:07;;;;;;;10.07;4.03;;;13.80;59.40;;;;;;5018447;28;20060;-48
2023/10/06 04:25:37;;;;;;;7.20;4.25;;;13.70;59.40;;;;;;5019578;28;20531;-48
2023/10/06 04:28:08;;;;;;;7.53;3.70;;;13.70;59.40;;;;;;5019555;28;20046;-47
2023/10/06 04:30:35;;;;;;;6.18;3.60;;;13.70;59.50;;;;;;5016533;28;20826;-46
2023/10/06 04:33:04;;;;;;;8.57;3.75;;;13.70;59.50;;;;;;5016368;28;20057;-46
2023/10/06 04:35:33;;;;;;;5.85;3.22;;;13.70;59.50;;;;;;5019014;28;20053;-49
2023/10/06 04:38:00;;;;;;;5.63;3.25;;;13.70;59.50;;;;;;5019241;28;20510;-46
2023/10/06 04:40:28;;;;;;;4.35;3.20;;;13.70;60.00;;;;;;5019710;28;20054;-48
2023/10/06 04:42:56;;;;;;;7.18;3.40;;;13.60;60.10;;;;;;5017704;28;20537;-48
2023/10/06 04:45:24;;;;;;;5.53;3.63;;;13.60;59.60;;;;;;5022375;28;20068;-48
2023/10/06 04:47:53;;;;;;;6.13;3.65;;;13.60;59.60;;;;;;5022628;28;20053;-50
2023/10/06 04:50:20;;;;;;;6.30;3.70;;;13.60;59.60;;;;;;5022972;28;20063;-47
2023/10/06 04:52:49;;;;;;;7.25;3.40;;;13.60;59.60;;;;;;5022245;28;20425;-50
2023/10/06 04:55:16;;;;;;;5.07;3.58;;;13.60;59.60;;;;;;5023848;28;20049;-45
2023/10/06 04:57:44;;;;;;;5.43;3.47;;;13.60;59.60;;;;;;5023877;28;20049;-45
2023/10/06 05:00:15;;;;;;;7.80;3.30;;;13.50;59.60;;;;;;5022808;28;20413;-49
2023/10/06 05:02:47;;;;;;;6.95;3.60;;;13.50;59.60;;;;;;5021578;28;20053;-50
2023/10/06 05:05:19;;;;;;;5.28;3.50;;;13.50;59.60;;;;;;5022520;28;20050;-46
2023/10/06 05:07:47;;;;;;;5.38;3.78;;;13.50;59.50;;;;;;5022808;28;20060;-46
2023/10/06 05:10:18;;;;;;;6.22;3.60;;;13.50;59.50;;;;;;5022317;28;20512;-49
2023/10/06 05:12:46;;;;;;;6.15;4.10;;;13.50;59.50;;;;;;5022150;28;20057;-47
2023/10/06 05:15:23;;;;;;;7.10;3.60;;;13.50;59.50;;;;;;5022033;28;20053;-45
2023/10/06 05:17:55;;;;;;;5.80;3.25;;;13.50;59.40;;;;;;5022482;28;20525;-50
2023/10/06 05:20:29;;;;;;;5.18;3.63;;;13.40;59.40;;;;;;5023421;28;20565;-47
2023/10/06 05:22:58;;;;;;;;;;;13.40;59.50;;;;;;5023702;28;20064;-50
2023/10/06 05:25:29;;;;;;;4.40;3.25;;;13.40;59.50;;;;;;5021980;28;19929;-45
2023/10/06 05:27:57;;;;;;;4.63;3.03;;;13.40;59.40;;;;;;5022019;28;20049;-47
2023/10/06 05:30:25;;;;;;;5.43;3.38;;;13.40;59.40;;;;;;5020923;28;20053;-45
2023/10/06 05:32:57;;;;;;;5.30;3.40;;;13.40;59.40;;;;;;5020668;28;20053;-47
2023/10/06 05:35:25;;;;;;;4.80;3.55;;;13.40;59.40;;;;;;5020233;28;20543;-48
2023/10/06 05:37:53;;;;;;;4.65;3.10;;;13.40;59.40;;;;;;5022635;28;20049;-45
2023/10/06 05:40:21;;;;;;;5.57;3.83;;;13.40;59.40;;;;;;5020989;28;20398;-49
2023/10/06 05:42:50;;;;;;;6.68;3.40;;;13.40;59.50;;;;;;5021290;28;20045;-46
2023/10/06 05:45:19;;;;;;;4.63;3.10;;;13.30;60.00;;;;;;5020034;28;20053;-47
2023/10/06 05:47:48;;;;;;;6.65;3.05;;;13.30;59.50;;;;;;5021314;28;20584;-48
2023/10/06 05:50:27;;;;;;;5.15;3.20;;;13.30;59.50;;;;;;5022142;28;20493;-47
2023/10/06 05:52:58;;;;;;;4.75;3.17;;;13.30;59.40;;;;;;5021250;28;20053;-48
2023/10/06 05:55:30;;;;;;;7.22;3.03;;;13.30;59.50;;;;;;5018846;28;20056;-45
2023/10/06 05:58:00;;;;;;;5.43;3.53;;;13.30;59.50;;;;;;5022020;28;20045;-46
2023/10/06 06:00:30;;;;;;;7.63;3.60;;;13.30;59.50;;;;;;5018721;28;20053;-45
2023/10/06 06:02:59;;;;;;;93.47;38.97;;;13.30;59.50;;;;;;5017866;28;20485;-45
2023/10/06 06:05:29;;;;;;;30.08;14.93;;;13.30;59.60;;;;;;5016798;28;20128;-48
2023/10/06 06:07:59;;;;;;;9.02;5.70;;;13.20;59.60;;;;;;5019928;28;20053;-48
2023/10/06 06:10:28;;;;;;;6.68;3.70;;;13.30;59.70;;;;;;5017984;28;20061;-48
2023/10/06 06:12:56;;;;;;;6.30;3.92;;;13.30;59.80;;;;;;5017251;28;20060;-46
2023/10/06 06:15:26;;;;;;;9.35;5.22;;;13.20;59.80;;;;;;5021445;28;20049;-47
2023/10/06 06:17:54;;;;;;;18.58;9.65;;;13.30;59.90;;;;;;5019619;28;20060;-47
2023/10/06 06:20:22;;;;;;;10.23;4.65;;;13.30;59.90;;;;;;5020919;28;20401;-49
2023/10/06 06:22:55;;;;;;;5.50;3.55;;;13.30;59.90;;;;;;5020915;28;20120;-49
2023/10/06 06:25:23;;;;;;;5.60;3.60;;;13.40;60.00;;;;;;5021960;28;20119;-46
2023/10/06 06:27:53;;;;;;;5.60;3.72;;;13.40;60.10;;;;;;5019614;28;20045;-47
2023/10/06 06:30:21;;;;;;;5.63;3.33;;;13.40;60.10;;;;;;5019663;28;20060;-48
2023/10/06 06:32:50;;;;;;;5.25;3.33;;;13.40;60.10;;;;;;5015888;28;20057;-47
2023/10/06 06:35:19;;;;;;;6.50;3.78;;;13.50;60.20;;;;;;5019328;28;20489;-48
2023/10/06 06:37:50;;;;;;;6.75;3.22;;;13.50;60.30;;;;;;5019533;28;20057;-47
2023/10/06 06:40:21;;;;;;;9.73;3.65;;;13.50;60.40;;;;;;5020911;28;20050;-46
2023/10/06 06:42:51;;;;;;;4.15;2.90;;;13.50;60.60;;;;;;5019298;28;20049;-48
2023/10/06 06:45:19;;;;;;;4.78;2.58;;;13.60;60.60;;;;;;5018990;28;20423;-47
2023/10/06 06:47:47;;;;;;;5.30;3.17;;;13.60;60.60;;;;;;5017978;28;20053;-48
2023/10/06 06:50:17;;;;;;;4.65;3.00;;;13.60;60.60;;;;;;5019982;28;21152;-46
2023/10/06 06:52:45;;;;;;;4.13;3.10;;;13.70;60.70;;;;;;5020004;28;20474;-45
2023/10/06 06:55:13;;;;;;;5.45;3.15;;;13.70;60.70;;;;;;5021626;28;20053;-48
2023/10/06 06:57:44;;;;;;;5.32;2.90;;;13.70;60.70;;;;;;5020199;28;20053;-47
2023/10/06 07:00:18;;;;;;;5.43;2.92;;;13.80;60.90;;;;;;5020594;28;20050;-50
2023/10/06 07:02:46;;;;;;;4.50;3.20;;;13.80;61.00;;;;;;5016268;28;20053;-48
2023/10/06 07:05:17;;;;;;;4.22;2.88;;;13.80;61.00;;;;;;5018279;28;20060;-45
2023/10/06 07:07:44;;;;;;;3.95;2.67;;;13.80;61.00;;;;;;5018839;28;20072;-45
2023/10/06 07:10:14;;;;;;;6.68;2.97;;;13.90;61.00;;;;;;5018493;28;20409;-45
2023/10/06 07:12:43;;;;;;;3.85;2.70;;;13.90;61.00;;;;;;5018636;28;22018;-46
2023/10/06 07:15:15;;;;;;;5.38;2.95;;;14.00;61.10;;;;;;5015336;28;20057;-48
2023/10/06 07:17:45;;;;;;;6.10;3.17;;;14.00;61.20;;;;;;5019790;28;21172;-47
2023/10/06 07:20:16;;;;;;;34.40;16.17;;;14.10;61.20;;;;;;5019292;28;20049;-49
2023/10/06 07:22:45;;;;;;;47.25;22.50;;;14.10;61.20;;;;;;5017698;28;20516;-47
2023/10/06 07:25:15;;;;;;;15.13;8.05;;;14.20;61.30;;;;;;5016334;28;20057;-48
2023/10/06 07:27:43;;;;;;;10.68;4.18;;;14.20;61.40;;;;;;5018897;28;20494;-46
2023/10/06 07:30:14;;;;;;;5.25;2.78;;;14.30;61.60;;;;;;5018997;28;20049;-45
2023/10/06 07:32:43;;;;;;;3.25;2.28;;;14.30;61.60;;;;;;5016831;28;20057;-45
2023/10/06 07:35:13;;;;;;;4.88;2.50;;;14.40;61.70;;;;;;5016357;28;20049;-49
2023/10/06 07:37:43;;;;;;;7.45;2.63;;;14.40;61.70;;;;;;5019781;28;20057;-46
2023/10/06 07:40:14;;;;;;;4.03;2.08;;;14.50;61.70;;;;;;5019051;28;20053;-50
2023/10/06 07:42:45;;;;;;;3.58;2.10;;;14.60;61.80;;;;;;5018649;28;20061;-49
2023/10/06 07:45:15;;;;;;;3.90;2.47;;;14.60;61.60;;;;;;5018937;28;20057;-46
2023/10/06 07:47:45;;;;;;;9.02;2.65;;;14.70;61.60;;;;;;5018341;28;20521;-46
2023/10/06 07:50:16;;;;;;;4.97;2.45;;;14.70;61.70;;;;;;5020373;28;20054;-47
2023/10/06 07:52:52;;;;;;;6.60;2.35;;;14.80;61.70;;;;;;5019849;28;20053;-48
2023/10/06 07:55:23;;;;;;;5.00;2.15;;;14.90;61.70;;;;;;5018926;28;20077;-49
2023/10/06 07:57:52;;;;;;;4.47;2.55;;;15.00;61.60;;;;;;5019458;28;20057;-49
2023/10/06 08:00:28;;;;;;;5.65;2.50;;;15.00;61.50;;;;;;5019898;28;20410;-46
2023/10/06 08:02:56;;;;;;;6.47;2.58;;;15.10;61.40;;;;;;5020018;28;20057;-49
2023/10/06 08:05:24;;;;;;;5.72;2.95;;;15.10;61.30;;;;;;5021421;28;20057;-49
2023/10/06 08:07:53;;;;;;;5.32;2.47;;;15.20;61.40;;;;;;5021624;28;20057;-46
2023/10/06 08:10:20;;;;;;;6.20;2.28;;;15.30;61.60;;;;;;5021200;28;20061;-49
2023/10/06 08:12:49;;;;;;;5.05;2.70;;;15.40;61.50;;;;;;5020583;28;20437;-46
2023/10/06 08:15:18;;;;;;;4.15;2.40;;;15.50;61.50;;;;;;5020893;28;20057;-47
2023/10/06 08:17:46;;;;;;;4.60;2.15;;;15.50;61.30;;;;;;5020804;28;20050;-48
2023/10/06 08:20:15;;;;;;;4.72;2.17;;;15.60;61.40;;;;;;5025179;28;20057;-49
2023/10/06 08:22:45;;;;;;;4.25;2.20;;;15.60;61.30;;;;;;5026161;28;20107;-51
2023/10/06 08:25:14;;;;;;;4.05;2.33;;;15.70;61.20;;;;;;5026024;28;20050;-50
2023/10/06 08:27:42;;;;;;;6.60;2.40;;;15.80;61.30;;;;;;5022796;28;20060;-49
2023/10/06 08:30:16;;;;;;;3.33;2.30;;;15.80;61.20;;;;;;5023568;28;20264;-46
2023/10/06 08:32:44;;;;;;;5.37;2.57;;;15.90;61.20;;;;;;5021411;28;20057;-48
2023/10/06 08:35:13;;;;;;;5.05;2.50;;;15.90;61.00;;;;;;5024922;28;20060;-46
2023/10/06 08:37:42;;;;;;;4.25;2.00;;;16.00;61.10;;;;;;5023720;28;20057;-51
2023/10/06 08:40:16;;;;;;;3.83;1.95;;;16.10;61.20;;;;;;5025461;28;20390;-49
2023/10/06 08:42:52;;;;;;;6.30;2.42;;;16.10;61.20;;;;;;5021874;28;20049;-47
2023/10/06 08:45:21;;;;;;;9.13;2.20;;;16.20;61.20;;;;;;5023393;28;20405;-46
2023/10/06 08:47:50;;;;;;;4.68;2.60;;;16.20;61.90;;;;;;5020274;28;20053;-49
2023/10/06 08:50:22;;;;;;;3.65;1.90;;;16.30;61.10;;;;;;5023905;28;20069;-48
2023/10/06 08:52:51;;;;;;;4.95;2.50;;;16.30;61.00;;;;;;5023361;28;20064;-47
2023/10/06 08:55:19;;;;;;;4.90;2.58;;;16.40;61.10;;;;;;5023945;28;20485;-47
2023/10/06 08:57:46;;;;;;;7.78;2.75;;;16.40;60.90;;;;;;5024781;28;20054;-46
2023/10/06 09:00:17;;;;;;;17.77;2.63;;;16.40;60.80;;;;;;5023657;28;20045;-46
2023/10/06 09:02:46;;;;;;;7.82;2.72;;;16.50;60.80;;;;;;5021806;28;20405;-48
2023/10/06 09:05:14;;;;;;;12.65;3.03;;;16.50;60.80;;;;;;5023297;28;20413;-44
2023/10/06 09:07:58;;;;;;;9.52;2.50;;;16.60;60.90;;;;;;5024244;28;20053;-45
2023/10/06 09:10:26;;;;;;;9.43;2.38;;;16.60;60.90;;;;;;5023108;28;20064;-46
2023/10/06 09:13:00;;;;;;;4.75;2.20;;;16.70;60.70;;;;;;5020924;28;20053;-49
2023/10/06 09:15:30;;;;;;;6.75;2.70;;;16.70;60.70;;;;;;5021616;28;20073;-45
2023/10/06 09:17:58;;;;;;;4.78;2.25;;;16.80;60.70;;;;;;5020853;28;20057;-47
2023/10/06 09:20:36;;;;;;;5.38;2.42;;;16.80;60.70;;;;;;5024173;28;20068;-44
2023/10/06 09:23:04;;;;;;;14.93;3.70;;;16.80;60.40;;;;;;5024934;28;20049;-49
2023/10/06 09:25:43;;;;;;;15.50;3.38;;;16.90;59.70;;;;;;5022973;28;20057;-46
2023/10/06 09:28:13;;;;;;;12.77;3.50;;;17.00;59.30;;;;;;5022168;28;20057;-46
2023/10/06 09:30:56;;;;;;;9.73;3.13;;;17.00;59.20;;;;;;5021310;28;20502;-44
2023/10/06 09:33:26;;;;;;;7.88;2.60;;;17.10;59.10;;;;;;5012181;28;20080;-50
2023/10/06 09:36:06;;;;;;;7.78;2.40;;;17.10;59.10;;;;;;5008558;28;20525;-49
2023/10/06 09:38:34;;;;;;;10.07;2.75;;;17.20;58.90;;;;;;5023829;28;20425;-48
2023/10/06 09:41:02;;;;;;;9.20;2.90;;;17.30;58.50;;;;;;5021916;28;20056;-46
2023/10/06 09:43:34;;;;;;;9.98;2.80;;;17.30;57.90;;;;;;5022388;28;20053;-46
2023/10/06 09:46:07;;;;;;;10.18;2.72;;;17.40;57.80;;;;;;5020855;28;20512;-46
2023/10/06 09:48:37;;;;;;;11.02;2.63;;;17.40;57.80;;;;;;5016444;28;20068;-45
2023/10/06 09:51:07;;;;;;;17.92;3.45;;;17.40;57.60;;;;;;5021203;28;20046;-51
2023/10/06 09:53:38;;;;;;;8.05;2.67;;;17.50;57.70;;;;;;5023323;28;20060;-48
2023/10/06 09:56:08;;;;;;;12.07;3.35;;;17.50;57.70;;;;;;5022617;28;20501;-48
2023/10/06 09:58:36;;;;;;;9.25;2.78;;;17.60;57.60;;;;;;5023391;28;20057;-50
2023/10/06 10:01:06;;;;;;;9.98;2.88;;;17.60;57.10;;;;;;5020518;28;20049;-46
2023/10/06 10:03:34;;;;;;;13.05;2.83;;;17.70;56.80;;;;;;5021098;28;20258;-48
2023/10/06 10:06:04;;;;;;;9.43;3.22;;;17.80;56.70;;;;;;5021424;28;20596;-47
2023/10/06 10:08:32;;;;;;;6.88;2.55;;;17.80;56.60;;;;;;5022878;28;20062;-48
2023/10/06 10:11:03;;;;;;;12.00;2.88;;;17.80;56.50;;;;;;5021341;28;20429;-49
2023/10/06 10:13:43;;;;;;;11.98;3.08;;;17.90;56.80;;;;;;5021860;28;20065;-47
2023/10/06 10:16:29;;;;;;;12.73;3.28;;;17.90;56.50;;;;;;5019411;28;20060;-46
2023/10/06 10:19:03;;;;;;;9.07;2.90;;;18.00;56.10;;;;;;5021356;28;20057;-46
2023/10/06 10:21:34;;;;;;;9.10;2.90;;;18.10;56.40;;;;;;5021637;28;20045;-45
2023/10/06 10:24:05;;;;;;;8.15;2.63;;;18.10;56.00;;;;;;5023650;28;20073;-51
2023/10/06 10:26:34;;;;;;;6.88;2.45;;;18.20;55.90;;;;;;5023385;28;20060;-47
2023/10/06 10:29:28;;;;;;;7.15;2.38;;;18.20;56.10;;;;;;5022700;28;20053;-46
2023/10/06 10:32:01;;;;;;;7.85;2.63;;;18.30;55.80;;;;;;5020336;28;20055;-46
2023/10/06 10:34:33;;;;;;;10.65;2.65;;;18.30;55.50;;;;;;5020713;28;20417;-49
2023/10/06 10:37:16;;;;;;;7.95;2.22;;;18.40;55.20;;;;;;5021757;28;20516;-50
2023/10/06 10:39:49;;;;;;;8.60;2.83;;;18.40;55.00;;;;;;5023020;28;20060;-50
2023/10/06 10:42:18;;;;;;;9.50;2.80;;;18.50;54.80;;;;;;5021316;28;20049;-46
2023/10/06 10:44:48;;;;;;;4.03;2.15;;;18.50;54.90;;;;;;5021545;28;20056;-45
2023/10/06 10:47:20;;;;;;;8.07;2.55;;;18.60;54.90;;;;;;5020443;28;20049;-49
2023/10/06 10:49:48;;;;;;;9.38;2.85;;;18.60;54.60;;;;;;5021397;28;20497;-48
2023/10/06 10:52:16;;;;;;;5.60;2.58;;;18.60;54.40;;;;;;5021575;28;20053;-48
2023/10/06 10:54:43;;;;;;;4.57;2.20;;;18.70;54.60;;;;;;5021758;28;20405;-49
2023/10/06 10:57:14;;;;;;;7.97;2.90;;;18.80;54.50;;;;;;5022465;28;20049;-50
2023/10/06 11:00:13;;;;;;;7.45;2.33;;;18.80;54.40;;;;;;5021872;28;20408;-49
2023/10/06 11:03:00;;;;;;;6.28;2.33;;;18.80;54.20;;;;;;5019461;28;20058;-48
2023/10/06 11:05:28;;;;;;;6.72;2.70;;;18.90;54.30;;;;;;5017675;28;20516;-47
2023/10/06 11:07:56;;;;;;;6.75;2.25;;;19.00;54.10;;;;;;5018979;28;20528;-45
2023/10/06 11:10:24;;;;;;;8.82;2.65;;;19.00;54.10;;;;;;5019999;28;20406;-48
2023/10/06 11:12:51;;;;;;;7.15;2.70;;;19.10;53.90;;;;;;5020850;28;20516;-49
2023/10/06 11:15:28;;;;;;;5.82;2.25;;;19.10;53.80;;;;;;5020170;28;20064;-46
2023/10/06 11:17:58;;;;;;;10.32;2.65;;;19.20;53.50;;;;;;5020319;28;20053;-46
2023/10/06 11:20:31;;;;;;;10.68;2.97;;;19.20;53.70;;;;;;5017227;28;20049;-49
2023/10/06 11:23:00;;;;;;;8.55;2.78;;;19.30;53.50;;;;;;5019605;28;20100;-48
2023/10/06 11:25:28;;;;;;;6.03;2.55;;;19.40;53.40;;;;;;5017985;28;20064;-49
2023/10/06 11:28:00;;;;;;;11.00;2.42;;;19.40;52.80;;;;;;5020380;28;20053;-48
2023/10/06 11:30:30;;;;;;;6.07;2.53;;;19.40;53.50;;;;;;5020669;28;20065;-48
2023/10/06 11:33:00;;;;;;;6.32;2.55;;;19.40;52.70;;;;;;5016319;28;20053;-50
2023/10/06 11:35:27;;;;;;;8.90;3.15;;;19.50;52.70;;;;;;5018799;28;20057;-49
2023/10/06 11:37:55;;;;;;;7.22;2.40;;;19.50;52.90;;;;;;5018669;28;20508;-48
2023/10/06 11:40:24;;;;;;;10.40;2.65;;;19.60;52.80;;;;;;5018038;28;20064;-48
2023/10/06 11:42:51;;;;;;;8.38;2.45;;;19.60;52.80;;;;;;5015902;28;20057;-47
2023/10/06 11:45:27;;;;;;;7.53;2.88;;;19.70;52.60;;;;;;5020172;28;20049;-45
2023/10/06 11:47:55;;;;;;;7.90;2.78;;;19.70;52.90;;;;;;5018670;28;20057;-48
2023/10/06 11:50:28;;;;;;;6.63;2.42;;;19.70;52.50;;;;;;5016768;28;20059;-47
2023/10/06 11:52:56;;;;;;;8.13;2.72;;;19.80;52.40;;;;;;5017869;28;20425;-46
2023/10/06 11:55:33;;;;;;;8.02;2.70;;;19.90;52.60;;;;;;5017977;28;20493;-51
2023/10/06 11:58:04;;;;;;;6.10;2.05;;;19.90;52.30;;;;;;5018230;28;20501;-46
2023/10/06 12:00:40;;;;;;;6.15;2.45;;;20.00;52.30;;;;;;5017049;28;20054;-46
2023/10/06 12:03:10;;;;;;;9.45;2.67;;;20.00;52.00;;;;;;5018011;28;20049;-47
2023/10/06 12:05:41;;;;;;;7.63;2.70;;;20.10;52.00;;;;;;5018264;28;20053;-49
2023/10/06 12:08:11;;;;;;;7.15;2.33;;;20.20;52.40;;;;;;5017416;28;20049;-51
2023/10/06 12:10:48;;;;;;;7.93;2.60;;;20.20;52.40;;;;;;5019360;28;20050;-51
2023/10/06 12:13:15;;;;;;;7.03;2.80;;;20.20;52.10;;;;;;5019214;28;20056;-47
2023/10/06 12:15:44;;;;;;;7.10;2.45;;;20.30;52.30;;;;;;5019548;28;20592;-47
2023/10/06 12:18:11;;;;;;;7.72;2.78;;;20.40;52.20;;;;;;5018906;28;20072;-50
2023/10/06 12:20:41;;;;;;;9.75;2.60;;;20.40;51.40;;;;;;5017532;28;20398;-49
2023/10/06 12:23:08;;;;;;;8.23;3.03;;;20.50;50.60;;;;;;5016020;28;20056;-44
2023/10/06 12:25:37;;;;;;;10.93;3.15;;;20.50;50.30;;;;;;5019242;28;20055;-46
2023/10/06 12:28:05;;;;;;;10.63;2.72;;;20.60;50.20;;;;;;5018762;28;20413;-44
2023/10/06 12:30:32;;;;;;;7.85;2.95;;;20.60;50.40;;;;;;5017459;28;20494;-46
2023/10/06 12:32:59;;;;;;;6.55;2.50;;;20.60;50.50;;;;;;5018499;28;20497;-44
2023/10/06 12:35:30;;;;;;;9.63;3.00;;;20.70;50.30;;;;;;5017964;28;20505;-47
2023/10/06 12:37:58;;;;;;;6.38;2.70;;;20.70;50.10;;;;;;5019661;28;20061;-51
2023/10/06 12:40:26;;;;;;;5.50;2.40;;;20.80;50.10;;;;;;5019056;28;21536;-46
2023/10/06 12:42:53;;;;;;;9.00;2.83;;;20.80;50.20;;;;;;5019686;28;20462;-44
2023/10/06 12:45:21;;;;;;;7.80;3.17;;;20.80;50.30;;;;;;5019798;28;20425;-48
2023/10/06 12:47:49;;;;;;;5.80;2.20;;;20.90;49.90;;;;;;5019655;28;20053;-47
2023/10/06 12:50:18;;;;;;;7.05;2.60;;;20.90;50.00;;;;;;5018531;28;20058;-44
2023/10/06 12:52:49;;;;;;;4.63;2.38;;;20.90;50.00;;;;;;5018527;28;20401;-49
2023/10/06 12:55:21;;;;;;;9.48;3.15;;;20.90;50.00;;;;;;5019555;28;20046;-46
2023/10/06 12:57:49;;;;;;;8.20;3.10;;;21.00;50.00;;;;;;5019066;28;20501;-45
2023/10/06 13:00:19;;;;;;;8.45;2.47;;;21.00;49.70;;;;;;5018896;28;20049;-47
2023/10/06 13:02:47;;;;;;;7.95;3.05;;;21.00;49.60;;;;;;5018471;28;20061;-46